sensor_id;sensor_type;location;lat;lon;timestamp;P1;durP1;ratioP1;P2;durP2;ratioP2
5199;SDS011;2619;47.868;11.892;2022-07-29T00:00:57;3.97;;;2.60;;
5199;SDS011;2619;47.868;11.892;2022-07-29T00:03:23;3.97;;;3.27;;
5199;SDS011;2619;47.868;11.892;2022-07-29T00:05:48;5.90;;;3.30;;
5199;SDS011;2619;47.868;11.892;2022-07-29T00:08:14;3.90;;;2.60;;
5199;SDS011;2619;47.868;11.892;2022-07-29T00:10:40;3.20;;;2.67;;
5199;SDS011;2619;47.868;11.892;2022-07-29T00:13:06;3.23;;;2.80;;
5199;SDS011;2619;47.868;11.892;2022-07-29T00:15:32;2.83;;;2.37;;
5199;SDS011;2619;47.868;11.892;2022-07-29T00:17:58;3.63;;;3.00;;
5199;SDS011;2619;47.868;11.892;2022-07-29T00:20:23;3.93;;;3.03;;
5199;SDS011;2619;47.868;11.892;2022-07-29T00:22:49;3.17;;;2.63;;
5199;SDS011;2619;47.868;11.892;2022-07-29T00:25:15;4.03;;;3.10;;
5199;SDS011;2619;47.868;11.892;2022-07-29T00:27:40;6.60;;;3.13;;
5199;SDS011;2619;47.868;11.892;2022-07-29T00:30:06;4.17;;;2.90;;
5199;SDS011;2619;47.868;11.892;2022-07-29T00:32:32;3.70;;;2.90;;
5199;SDS011;2619;47.868;11.892;2022-07-29T00:34:58;6.60;;;3.10;;
5199;SDS011;2619;47.868;11.892;2022-07-29T00:37:42;5.00;;;3.07;;
5199;SDS011;2619;47.868;11.892;2022-07-29T00:40:08;3.17;;;2.83;;
5199;SDS011;2619;47.868;11.892;2022-07-29T00:45:13;4.20;;;3.10;;
5199;SDS011;2619;47.868;11.892;2022-07-29T00:47:39;4.40;;;2.60;;
5199;SDS011;2619;47.868;11.892;2022-07-29T00:50:05;4.27;;;2.73;;
5199;SDS011;2619;47.868;11.892;2022-07-29T00:52:33;2.83;;;2.43;;
5199;SDS011;2619;47.868;11.892;2022-07-29T00:55:02;5.50;;;3.10;;
5199;SDS011;2619;47.868;11.892;2022-07-29T00:57:29;3.60;;;2.63;;
5199;SDS011;2619;47.868;11.892;2022-07-29T00:59:54;4.17;;;3.27;;
5199;SDS011;2619;47.868;11.892;2022-07-29T01:02:20;3.77;;;3.23;;
5199;SDS011;2619;47.868;11.892;2022-07-29T01:04:46;4.37;;;3.27;;
5199;SDS011;2619;47.868;11.892;2022-07-29T01:07:12;5.70;;;3.20;;
5199;SDS011;2619;47.868;11.892;2022-07-29T01:09:38;3.87;;;2.93;;
5199;SDS011;2619;47.868;11.892;2022-07-29T01:12:04;3.20;;;2.60;;
5199;SDS011;2619;47.868;11.892;2022-07-29T01:14:30;3.10;;;2.70;;
5199;SDS011;2619;47.868;11.892;2022-07-29T01:17:13;3.10;;;2.80;;
5199;SDS011;2619;47.868;11.892;2022-07-29T01:30:53;3.83;;;2.63;;
5199;SDS011;2619;47.868;11.892;2022-07-29T01:33:19;3.93;;;3.00;;
5199;SDS011;2619;47.868;11.892;2022-07-29T01:36:09;5.80;;;3.10;;
5199;SDS011;2619;47.868;11.892;2022-07-29T01:38:38;4.23;;;3.17;;
5199;SDS011;2619;47.868;11.892;2022-07-29T01:41:07;3.93;;;2.93;;
5199;SDS011;2619;47.868;11.892;2022-07-29T01:46:20;6.80;;;3.33;;
5199;SDS011;2619;47.868;11.892;2022-07-29T01:48:53;3.83;;;2.80;;
5199;SDS011;2619;47.868;11.892;2022-07-29T01:51:28;4.47;;;3.30;;
5199;SDS011;2619;47.868;11.892;2022-07-29T01:56:31;6.37;;;3.57;;
5199;SDS011;2619;47.868;11.892;2022-07-29T01:58:58;3.90;;;2.93;;
5199;SDS011;2619;47.868;11.892;2022-07-29T02:01:26;3.30;;;3.00;;
5199;SDS011;2619;47.868;11.892;2022-07-29T02:03:54;4.80;;;3.40;;
5199;SDS011;2619;47.868;11.892;2022-07-29T02:06:21;4.57;;;3.60;;
5199;SDS011;2619;47.868;11.892;2022-07-29T02:08:48;4.00;;;3.40;;
5199;SDS011;2619;47.868;11.892;2022-07-29T02:11:16;4.03;;;3.33;;
5199;SDS011;2619;47.868;11.892;2022-07-29T02:13:41;5.50;;;3.40;;
5199;SDS011;2619;47.868;11.892;2022-07-29T02:16:09;4.23;;;3.20;;
5199;SDS011;2619;47.868;11.892;2022-07-29T02:18:36;4.33;;;3.90;;
5199;SDS011;2619;47.868;11.892;2022-07-29T02:21:04;3.53;;;3.23;;
5199;SDS011;2619;47.868;11.892;2022-07-29T02:23:30;4.00;;;3.23;;
5199;SDS011;2619;47.868;11.892;2022-07-29T02:26:00;3.20;;;2.60;;
5199;SDS011;2619;47.868;11.892;2022-07-29T02:28:28;5.53;;;3.37;;
5199;SDS011;2619;47.868;11.892;2022-07-29T02:30:55;4.20;;;3.77;;
5199;SDS011;2619;47.868;11.892;2022-07-29T02:33:25;4.07;;;3.20;;
5199;SDS011;2619;47.868;11.892;2022-07-29T02:35:52;3.87;;;3.47;;
5199;SDS011;2619;47.868;11.892;2022-07-29T02:38:18;4.30;;;3.50;;
5199;SDS011;2619;47.868;11.892;2022-07-29T02:41:08;4.83;;;3.30;;
5199;SDS011;2619;47.868;11.892;2022-07-29T02:43:36;4.07;;;3.17;;
5199;SDS011;2619;47.868;11.892;2022-07-29T02:46:07;3.90;;;3.50;;
5199;SDS011;2619;47.868;11.892;2022-07-29T02:48:40;3.57;;;3.27;;
5199;SDS011;2619;47.868;11.892;2022-07-29T02:51:23;3.30;;;2.90;;
5199;SDS011;2619;47.868;11.892;2022-07-29T02:53:53;3.20;;;2.80;;
5199;SDS011;2619;47.868;11.892;2022-07-29T02:56:23;3.10;;;2.70;;
5199;SDS011;2619;47.868;11.892;2022-07-29T02:58:56;4.67;;;2.43;;
5199;SDS011;2619;47.868;11.892;2022-07-29T03:01:25;3.20;;;2.83;;
5199;SDS011;2619;47.868;11.892;2022-07-29T03:03:55;5.53;;;3.27;;
5199;SDS011;2619;47.868;11.892;2022-07-29T03:06:22;5.50;;;3.13;;
5199;SDS011;2619;47.868;11.892;2022-07-29T03:08:50;4.07;;;3.30;;
5199;SDS011;2619;47.868;11.892;2022-07-29T03:11:16;3.40;;;3.10;;
5199;SDS011;2619;47.868;11.892;2022-07-29T03:13:43;3.47;;;3.00;;
5199;SDS011;2619;47.868;11.892;2022-07-29T03:16:09;4.17;;;3.40;;
5199;SDS011;2619;47.868;11.892;2022-07-29T03:18:36;3.70;;;3.00;;
5199;SDS011;2619;47.868;11.892;2022-07-29T03:21:02;4.50;;;3.17;;
5199;SDS011;2619;47.868;11.892;2022-07-29T03:23:28;3.33;;;2.60;;
5199;SDS011;2619;47.868;11.892;2022-07-29T03:25:54;3.47;;;3.17;;
5199;SDS011;2619;47.868;11.892;2022-07-29T03:28:20;5.17;;;3.50;;
5199;SDS011;2619;47.868;11.892;2022-07-29T03:30:46;4.27;;;3.23;;
5199;SDS011;2619;47.868;11.892;2022-07-29T03:33:12;4.00;;;3.10;;
5199;SDS011;2619;47.868;11.892;2022-07-29T03:35:38;5.90;;;3.40;;
5199;SDS011;2619;47.868;11.892;2022-07-29T03:38:04;5.27;;;3.20;;
5199;SDS011;2619;47.868;11.892;2022-07-29T03:40:31;9.23;;;3.90;;
5199;SDS011;2619;47.868;11.892;2022-07-29T03:43:02;4.27;;;3.10;;
5199;SDS011;2619;47.868;11.892;2022-07-29T03:45:31;3.77;;;3.03;;
5199;SDS011;2619;47.868;11.892;2022-07-29T03:48:03;4.23;;;3.23;;
5199;SDS011;2619;47.868;11.892;2022-07-29T03:50:33;4.90;;;3.70;;
5199;SDS011;2619;47.868;11.892;2022-07-29T03:53:00;5.30;;;4.00;;
5199;SDS011;2619;47.868;11.892;2022-07-29T03:55:27;4.50;;;3.70;;
5199;SDS011;2619;47.868;11.892;2022-07-29T03:57:55;3.87;;;3.47;;
5199;SDS011;2619;47.868;11.892;2022-07-29T04:00:23;6.60;;;3.50;;
5199;SDS011;2619;47.868;11.892;2022-07-29T04:02:49;3.80;;;3.30;;
5199;SDS011;2619;47.868;11.892;2022-07-29T04:05:18;3.90;;;3.37;;
5199;SDS011;2619;47.868;11.892;2022-07-29T04:07:44;4.20;;;3.47;;
5199;SDS011;2619;47.868;11.892;2022-07-29T04:10:10;5.30;;;4.13;;
5199;SDS011;2619;47.868;11.892;2022-07-29T04:12:36;4.50;;;4.07;;
5199;SDS011;2619;47.868;11.892;2022-07-29T04:15:03;4.10;;;3.70;;
5199;SDS011;2619;47.868;11.892;2022-07-29T04:17:29;6.10;;;3.60;;
5199;SDS011;2619;47.868;11.892;2022-07-29T04:19:55;4.20;;;3.20;;
5199;SDS011;2619;47.868;11.892;2022-07-29T04:22:20;3.97;;;3.33;;
5199;SDS011;2619;47.868;11.892;2022-07-29T04:24:46;4.73;;;3.27;;
5199;SDS011;2619;47.868;11.892;2022-07-29T04:27:12;4.60;;;3.60;;
5199;SDS011;2619;47.868;11.892;2022-07-29T04:29:37;4.67;;;3.60;;
5199;SDS011;2619;47.868;11.892;2022-07-29T04:32:03;5.33;;;3.50;;
5199;SDS011;2619;47.868;11.892;2022-07-29T04:34:29;4.57;;;3.27;;
5199;SDS011;2619;47.868;11.892;2022-07-29T04:36:55;4.47;;;3.23;;
5199;SDS011;2619;47.868;11.892;2022-07-29T04:39:20;3.70;;;3.10;;
5199;SDS011;2619;47.868;11.892;2022-07-29T04:41:46;3.60;;;3.30;;
5199;SDS011;2619;47.868;11.892;2022-07-29T04:44:12;4.53;;;3.77;;
5199;SDS011;2619;47.868;11.892;2022-07-29T04:46:38;6.83;;;3.43;;
5199;SDS011;2619;47.868;11.892;2022-07-29T04:49:03;4.60;;;3.23;;
5199;SDS011;2619;47.868;11.892;2022-07-29T04:51:29;4.27;;;2.90;;
5199;SDS011;2619;47.868;11.892;2022-07-29T04:53:56;4.53;;;3.10;;
5199;SDS011;2619;47.868;11.892;2022-07-29T04:56:21;3.90;;;3.00;;
5199;SDS011;2619;47.868;11.892;2022-07-29T04:58:47;4.40;;;3.30;;
5199;SDS011;2619;47.868;11.892;2022-07-29T05:01:13;5.93;;;3.40;;
5199;SDS011;2619;47.868;11.892;2022-07-29T05:03:39;4.13;;;2.50;;
5199;SDS011;2619;47.868;11.892;2022-07-29T05:06:05;5.80;;;3.00;;
5199;SDS011;2619;47.868;11.892;2022-07-29T05:08:30;5.60;;;3.33;;
5199;SDS011;2619;47.868;11.892;2022-07-29T05:10:56;5.43;;;2.90;;
5199;SDS011;2619;47.868;11.892;2022-07-29T05:13:22;3.83;;;2.83;;
5199;SDS011;2619;47.868;11.892;2022-07-29T05:15:47;3.97;;;2.80;;
5199;SDS011;2619;47.868;11.892;2022-07-29T05:18:13;3.13;;;2.77;;
5199;SDS011;2619;47.868;11.892;2022-07-29T05:20:39;4.60;;;2.30;;
5199;SDS011;2619;47.868;11.892;2022-07-29T05:23:04;3.97;;;2.40;;
5199;SDS011;2619;47.868;11.892;2022-07-29T05:25:30;5.10;;;2.60;;
5199;SDS011;2619;47.868;11.892;2022-07-29T05:27:56;4.97;;;2.73;;
5199;SDS011;2619;47.868;11.892;2022-07-29T05:30:22;3.97;;;2.10;;
5199;SDS011;2619;47.868;11.892;2022-07-29T05:32:47;4.30;;;2.20;;
5199;SDS011;2619;47.868;11.892;2022-07-29T05:35:13;5.03;;;2.50;;
5199;SDS011;2619;47.868;11.892;2022-07-29T05:37:40;3.30;;;2.57;;
5199;SDS011;2619;47.868;11.892;2022-07-29T05:40:06;4.20;;;2.47;;
5199;SDS011;2619;47.868;11.892;2022-07-29T05:42:33;4.80;;;2.43;;
5199;SDS011;2619;47.868;11.892;2022-07-29T05:44:59;3.13;;;2.10;;
5199;SDS011;2619;47.868;11.892;2022-07-29T05:47:25;4.73;;;2.13;;
5199;SDS011;2619;47.868;11.892;2022-07-29T05:49:51;3.70;;;2.80;;
5199;SDS011;2619;47.868;11.892;2022-07-29T05:52:17;5.13;;;2.83;;
5199;SDS011;2619;47.868;11.892;2022-07-29T05:54:43;3.33;;;2.60;;
5199;SDS011;2619;47.868;11.892;2022-07-29T05:57:14;2.77;;;2.30;;
5199;SDS011;2619;47.868;11.892;2022-07-29T05:59:41;3.27;;;2.87;;
5199;SDS011;2619;47.868;11.892;2022-07-29T06:02:07;2.80;;;2.50;;
5199;SDS011;2619;47.868;11.892;2022-07-29T06:04:35;4.13;;;2.77;;
5199;SDS011;2619;47.868;11.892;2022-07-29T06:07:01;3.80;;;2.97;;
5199;SDS011;2619;47.868;11.892;2022-07-29T06:09:27;3.93;;;3.00;;
5199;SDS011;2619;47.868;11.892;2022-07-29T06:11:52;3.77;;;3.47;;
5199;SDS011;2619;47.868;11.892;2022-07-29T06:14:18;3.33;;;3.03;;
5199;SDS011;2619;47.868;11.892;2022-07-29T06:16:44;4.70;;;3.43;;
5199;SDS011;2619;47.868;11.892;2022-07-29T06:19:10;3.30;;;3.00;;
5199;SDS011;2619;47.868;11.892;2022-07-29T06:21:35;5.57;;;3.60;;
5199;SDS011;2619;47.868;11.892;2022-07-29T06:24:01;4.87;;;3.83;;
5199;SDS011;2619;47.868;11.892;2022-07-29T06:26:27;4.97;;;3.67;;
5199;SDS011;2619;47.868;11.892;2022-07-29T06:28:53;4.83;;;3.37;;
5199;SDS011;2619;47.868;11.892;2022-07-29T06:31:18;3.77;;;3.40;;
5199;SDS011;2619;47.868;11.892;2022-07-29T06:33:44;3.63;;;3.00;;
5199;SDS011;2619;47.868;11.892;2022-07-29T06:36:09;4.47;;;3.90;;
5199;SDS011;2619;47.868;11.892;2022-07-29T06:38:35;3.97;;;3.57;;
5199;SDS011;2619;47.868;11.892;2022-07-29T06:41:03;2.70;;;2.50;;
5199;SDS011;2619;47.868;11.892;2022-07-29T06:43:34;3.80;;;3.03;;
5199;SDS011;2619;47.868;11.892;2022-07-29T06:46:15;3.67;;;2.70;;
5199;SDS011;2619;47.868;11.892;2022-07-29T06:48:44;4.50;;;3.63;;
5199;SDS011;2619;47.868;11.892;2022-07-29T06:51:09;4.33;;;3.50;;
5199;SDS011;2619;47.868;11.892;2022-07-29T06:53:36;5.37;;;3.40;;
5199;SDS011;2619;47.868;11.892;2022-07-29T06:56:03;4.17;;;3.63;;
5199;SDS011;2619;47.868;11.892;2022-07-29T06:58:29;3.70;;;3.30;;
5199;SDS011;2619;47.868;11.892;2022-07-29T07:00:56;4.57;;;3.20;;
5199;SDS011;2619;47.868;11.892;2022-07-29T07:03:22;3.97;;;3.57;;
5199;SDS011;2619;47.868;11.892;2022-07-29T07:05:48;5.80;;;3.57;;
5199;SDS011;2619;47.868;11.892;2022-07-29T07:08:13;5.20;;;3.87;;
5199;SDS011;2619;47.868;11.892;2022-07-29T07:10:41;4.00;;;3.53;;
5199;SDS011;2619;47.868;11.892;2022-07-29T07:13:07;5.27;;;3.80;;
5199;SDS011;2619;47.868;11.892;2022-07-29T07:15:33;3.93;;;3.60;;
5199;SDS011;2619;47.868;11.892;2022-07-29T07:18:00;3.67;;;3.37;;
5199;SDS011;2619;47.868;11.892;2022-07-29T07:20:25;3.53;;;3.20;;
5199;SDS011;2619;47.868;11.892;2022-07-29T07:22:51;3.47;;;3.17;;
5199;SDS011;2619;47.868;11.892;2022-07-29T07:25:16;3.27;;;2.97;;
5199;SDS011;2619;47.868;11.892;2022-07-29T07:27:43;3.97;;;3.63;;
5199;SDS011;2619;47.868;11.892;2022-07-29T07:30:09;3.13;;;2.83;;
5199;SDS011;2619;47.868;11.892;2022-07-29T07:32:35;3.33;;;3.03;;
5199;SDS011;2619;47.868;11.892;2022-07-29T07:35:02;2.80;;;2.50;;
5199;SDS011;2619;47.868;11.892;2022-07-29T07:37:29;3.20;;;2.87;;
5199;SDS011;2619;47.868;11.892;2022-07-29T07:39:54;3.43;;;2.40;;
5199;SDS011;2619;47.868;11.892;2022-07-29T07:42:20;3.63;;;2.90;;
5199;SDS011;2619;47.868;11.892;2022-07-29T07:44:46;3.57;;;2.60;;
5199;SDS011;2619;47.868;11.892;2022-07-29T07:47:13;3.53;;;2.80;;
5199;SDS011;2619;47.868;11.892;2022-07-29T07:49:39;5.17;;;2.60;;
5199;SDS011;2619;47.868;11.892;2022-07-29T07:52:05;6.40;;;3.00;;
5199;SDS011;2619;47.868;11.892;2022-07-29T07:54:30;3.17;;;2.77;;
5199;SDS011;2619;47.868;11.892;2022-07-29T07:56:56;3.80;;;2.93;;
5199;SDS011;2619;47.868;11.892;2022-07-29T07:59:22;2.90;;;2.60;;
5199;SDS011;2619;47.868;11.892;2022-07-29T08:01:48;3.57;;;2.37;;
5199;SDS011;2619;47.868;11.892;2022-07-29T08:04:14;2.60;;;2.27;;
5199;SDS011;2619;47.868;11.892;2022-07-29T08:06:40;3.17;;;2.77;;
5199;SDS011;2619;47.868;11.892;2022-07-29T08:09:05;3.33;;;2.40;;
5199;SDS011;2619;47.868;11.892;2022-07-29T08:11:31;3.40;;;2.57;;
5199;SDS011;2619;47.868;11.892;2022-07-29T08:13:57;3.10;;;2.50;;
5199;SDS011;2619;47.868;11.892;2022-07-29T08:16:23;2.83;;;2.33;;
5199;SDS011;2619;47.868;11.892;2022-07-29T08:18:50;4.00;;;2.87;;
5199;SDS011;2619;47.868;11.892;2022-07-29T08:21:16;4.63;;;2.73;;
5199;SDS011;2619;47.868;11.892;2022-07-29T08:23:43;3.03;;;2.40;;
5199;SDS011;2619;47.868;11.892;2022-07-29T08:26:15;5.10;;;2.23;;
5199;SDS011;2619;47.868;11.892;2022-07-29T08:28:42;2.80;;;2.50;;
5199;SDS011;2619;47.868;11.892;2022-07-29T08:31:13;2.73;;;2.20;;
5199;SDS011;2619;47.868;11.892;2022-07-29T08:33:39;3.83;;;2.80;;
5199;SDS011;2619;47.868;11.892;2022-07-29T08:36:05;5.50;;;2.60;;
5199;SDS011;2619;47.868;11.892;2022-07-29T08:38:31;4.63;;;2.20;;
5199;SDS011;2619;47.868;11.892;2022-07-29T08:40:57;3.70;;;2.50;;
5199;SDS011;2619;47.868;11.892;2022-07-29T08:43:24;6.90;;;2.53;;
5199;SDS011;2619;47.868;11.892;2022-07-29T08:45:51;2.90;;;2.50;;
5199;SDS011;2619;47.868;11.892;2022-07-29T08:48:18;3.97;;;2.50;;
5199;SDS011;2619;47.868;11.892;2022-07-29T08:50:45;3.33;;;2.20;;
5199;SDS011;2619;47.868;11.892;2022-07-29T08:53:13;2.87;;;2.30;;
5199;SDS011;2619;47.868;11.892;2022-07-29T08:55:42;2.80;;;2.00;;
5199;SDS011;2619;47.868;11.892;2022-07-29T08:58:09;3.57;;;2.50;;
5199;SDS011;2619;47.868;11.892;2022-07-29T09:00:36;3.90;;;2.57;;
5199;SDS011;2619;47.868;11.892;2022-07-29T09:03:05;2.70;;;2.30;;
5199;SDS011;2619;47.868;11.892;2022-07-29T09:05:32;3.53;;;2.60;;
5199;SDS011;2619;47.868;11.892;2022-07-29T09:07:59;3.90;;;2.50;;
5199;SDS011;2619;47.868;11.892;2022-07-29T09:10:25;3.10;;;2.70;;
5199;SDS011;2619;47.868;11.892;2022-07-29T09:12:50;4.63;;;2.47;;
5199;SDS011;2619;47.868;11.892;2022-07-29T09:15:17;5.27;;;2.90;;
5199;SDS011;2619;47.868;11.892;2022-07-29T09:17:43;3.70;;;2.90;;
5199;SDS011;2619;47.868;11.892;2022-07-29T09:20:12;3.50;;;2.93;;
5199;SDS011;2619;47.868;11.892;2022-07-29T09:22:39;2.60;;;2.20;;
5199;SDS011;2619;47.868;11.892;2022-07-29T09:25:05;3.80;;;2.60;;
5199;SDS011;2619;47.868;11.892;2022-07-29T09:27:31;3.60;;;2.70;;
5199;SDS011;2619;47.868;11.892;2022-07-29T09:32:28;2.97;;;2.57;;
5199;SDS011;2619;47.868;11.892;2022-07-29T09:37:40;2.97;;;2.57;;
5199;SDS011;2619;47.868;11.892;2022-07-29T09:40:13;2.90;;;2.27;;
5199;SDS011;2619;47.868;11.892;2022-07-29T09:42:40;3.37;;;2.30;;
5199;SDS011;2619;47.868;11.892;2022-07-29T09:45:06;2.73;;;2.10;;
5199;SDS011;2619;47.868;11.892;2022-07-29T09:47:42;2.57;;;2.23;;
5199;SDS011;2619;47.868;11.892;2022-07-29T09:50:10;3.50;;;3.13;;
5199;SDS011;2619;47.868;11.892;2022-07-29T09:52:49;3.00;;;2.30;;
5199;SDS011;2619;47.868;11.892;2022-07-29T09:55:17;3.47;;;2.53;;
5199;SDS011;2619;47.868;11.892;2022-07-29T09:57:44;2.57;;;2.33;;
5199;SDS011;2619;47.868;11.892;2022-07-29T10:00:12;3.17;;;2.30;;
5199;SDS011;2619;47.868;11.892;2022-07-29T10:02:40;2.60;;;2.30;;
5199;SDS011;2619;47.868;11.892;2022-07-29T10:10:10;3.90;;;2.57;;
5199;SDS011;2619;47.868;11.892;2022-07-29T10:12:50;3.60;;;2.37;;
5199;SDS011;2619;47.868;11.892;2022-07-29T10:15:21;2.97;;;2.40;;
5199;SDS011;2619;47.868;11.892;2022-07-29T10:17:48;3.13;;;2.83;;
5199;SDS011;2619;47.868;11.892;2022-07-29T10:20:15;2.20;;;2.00;;
5199;SDS011;2619;47.868;11.892;2022-07-29T10:22:42;3.10;;;2.40;;
5199;SDS011;2619;47.868;11.892;2022-07-29T10:25:09;3.00;;;2.70;;
5199;SDS011;2619;47.868;11.892;2022-07-29T10:27:35;4.00;;;2.47;;
5199;SDS011;2619;47.868;11.892;2022-07-29T10:30:02;6.23;;;2.90;;
5199;SDS011;2619;47.868;11.892;2022-07-29T10:43:25;5.20;;;3.23;;
5199;SDS011;2619;47.868;11.892;2022-07-29T10:45:58;2.93;;;2.63;;
5199;SDS011;2619;47.868;11.892;2022-07-29T10:48:25;3.00;;;2.70;;
5199;SDS011;2619;47.868;11.892;2022-07-29T10:53:24;4.50;;;3.30;;
5199;SDS011;2619;47.868;11.892;2022-07-29T10:56:23;3.07;;;2.77;;
5199;SDS011;2619;47.868;11.892;2022-07-29T10:59:22;3.80;;;3.50;;
5199;SDS011;2619;47.868;11.892;2022-07-29T11:01:44;4.10;;;3.10;;
5199;SDS011;2619;47.868;11.892;2022-07-29T11:04:10;4.20;;;3.10;;
5199;SDS011;2619;47.868;11.892;2022-07-29T11:09:29;2.90;;;2.60;;
5199;SDS011;2619;47.868;11.892;2022-07-29T11:11:55;3.90;;;3.23;;
5199;SDS011;2619;47.868;11.892;2022-07-29T11:17:18;3.83;;;3.50;;
5199;SDS011;2619;47.868;11.892;2022-07-29T11:19:44;4.50;;;3.53;;
5199;SDS011;2619;47.868;11.892;2022-07-29T11:22:10;3.60;;;3.30;;
5199;SDS011;2619;47.868;11.892;2022-07-29T11:24:37;3.40;;;3.07;;
5199;SDS011;2619;47.868;11.892;2022-07-29T11:27:10;3.23;;;2.93;;
5199;SDS011;2619;47.868;11.892;2022-07-29T11:29:48;3.67;;;3.33;;
5199;SDS011;2619;47.868;11.892;2022-07-29T11:32:16;3.20;;;2.90;;
5199;SDS011;2619;47.868;11.892;2022-07-29T11:34:44;4.30;;;3.53;;
5199;SDS011;2619;47.868;11.892;2022-07-29T11:47:22;3.93;;;3.47;;
5199;SDS011;2619;47.868;11.892;2022-07-29T11:49:48;3.80;;;3.40;;
5199;SDS011;2619;47.868;11.892;2022-07-29T11:52:16;3.57;;;3.03;;
5199;SDS011;2619;47.868;11.892;2022-07-29T11:54:42;5.43;;;3.40;;
5199;SDS011;2619;47.868;11.892;2022-07-29T11:57:09;3.17;;;2.90;;
5199;SDS011;2619;47.868;11.892;2022-07-29T11:59:38;3.83;;;3.53;;
5199;SDS011;2619;47.868;11.892;2022-07-29T12:02:07;4.33;;;2.77;;
5199;SDS011;2619;47.868;11.892;2022-07-29T12:04:34;3.20;;;2.90;;
5199;SDS011;2619;47.868;11.892;2022-07-29T12:07:16;3.73;;;3.20;;
5199;SDS011;2619;47.868;11.892;2022-07-29T12:09:52;4.40;;;3.23;;
5199;SDS011;2619;47.868;11.892;2022-07-29T12:12:18;3.20;;;2.80;;
5199;SDS011;2619;47.868;11.892;2022-07-29T12:14:44;3.30;;;2.80;;
5199;SDS011;2619;47.868;11.892;2022-07-29T12:17:29;3.70;;;3.33;;
5199;SDS011;2619;47.868;11.892;2022-07-29T12:20:00;3.60;;;3.00;;
5199;SDS011;2619;47.868;11.892;2022-07-29T12:22:29;4.10;;;3.13;;
5199;SDS011;2619;47.868;11.892;2022-07-29T12:24:55;4.40;;;2.90;;
5199;SDS011;2619;47.868;11.892;2022-07-29T12:27:25;3.23;;;2.93;;
5199;SDS011;2619;47.868;11.892;2022-07-29T12:29:57;3.27;;;2.70;;
5199;SDS011;2619;47.868;11.892;2022-07-29T12:35:05;4.00;;;2.90;;
5199;SDS011;2619;47.868;11.892;2022-07-29T12:37:36;3.30;;;2.83;;
5199;SDS011;2619;47.868;11.892;2022-07-29T12:40:04;3.70;;;3.30;;
5199;SDS011;2619;47.868;11.892;2022-07-29T12:42:31;4.63;;;2.80;;
5199;SDS011;2619;47.868;11.892;2022-07-29T12:44:57;3.80;;;3.00;;
5199;SDS011;2619;47.868;11.892;2022-07-29T12:47:22;3.00;;;2.70;;
5199;SDS011;2619;47.868;11.892;2022-07-29T12:49:49;4.43;;;2.80;;
5199;SDS011;2619;47.868;11.892;2022-07-29T12:52:25;3.37;;;2.80;;
5199;SDS011;2619;47.868;11.892;2022-07-29T12:54:54;3.33;;;2.60;;
5199;SDS011;2619;47.868;11.892;2022-07-29T12:57:20;3.03;;;2.73;;
5199;SDS011;2619;47.868;11.892;2022-07-29T13:02:35;3.20;;;2.90;;
5199;SDS011;2619;47.868;11.892;2022-07-29T13:05:03;3.23;;;2.63;;
5199;SDS011;2619;47.868;11.892;2022-07-29T13:07:30;3.10;;;2.70;;
5199;SDS011;2619;47.868;11.892;2022-07-29T13:10:15;3.70;;;2.47;;
5199;SDS011;2619;47.868;11.892;2022-07-29T13:13:01;2.67;;;2.10;;
5199;SDS011;2619;47.868;11.892;2022-07-29T13:15:33;3.53;;;2.20;;
5199;SDS011;2619;47.868;11.892;2022-07-29T13:17:59;2.13;;;1.93;;
5199;SDS011;2619;47.868;11.892;2022-07-29T13:20:25;2.30;;;1.97;;
5199;SDS011;2619;47.868;11.892;2022-07-29T13:22:54;2.93;;;2.57;;
5199;SDS011;2619;47.868;11.892;2022-07-29T13:25:25;3.87;;;2.63;;
5199;SDS011;2619;47.868;11.892;2022-07-29T13:27:53;3.07;;;2.70;;
5199;SDS011;2619;47.868;11.892;2022-07-29T13:30:19;3.00;;;2.40;;
5199;SDS011;2619;47.868;11.892;2022-07-29T13:32:46;2.97;;;2.00;;
5199;SDS011;2619;47.868;11.892;2022-07-29T13:35:12;12.73;;;3.20;;
5199;SDS011;2619;47.868;11.892;2022-07-29T13:37:38;4.70;;;2.13;;
5199;SDS011;2619;47.868;11.892;2022-07-29T13:40:05;3.50;;;2.37;;
5199;SDS011;2619;47.868;11.892;2022-07-29T13:42:34;3.13;;;2.20;;
5199;SDS011;2619;47.868;11.892;2022-07-29T13:45:00;3.10;;;2.60;;
5199;SDS011;2619;47.868;11.892;2022-07-29T13:47:26;4.13;;;2.30;;
5199;SDS011;2619;47.868;11.892;2022-07-29T13:49:53;3.37;;;2.23;;
5199;SDS011;2619;47.868;11.892;2022-07-29T13:52:19;2.50;;;2.30;;
5199;SDS011;2619;47.868;11.892;2022-07-29T13:54:45;4.83;;;2.83;;
5199;SDS011;2619;47.868;11.892;2022-07-29T13:57:11;2.50;;;2.30;;
5199;SDS011;2619;47.868;11.892;2022-07-29T13:59:37;3.67;;;2.73;;
5199;SDS011;2619;47.868;11.892;2022-07-29T14:02:04;3.47;;;2.73;;
5199;SDS011;2619;47.868;11.892;2022-07-29T14:04:30;2.60;;;2.40;;
5199;SDS011;2619;47.868;11.892;2022-07-29T14:06:56;4.50;;;2.53;;
5199;SDS011;2619;47.868;11.892;2022-07-29T14:09:22;2.90;;;2.60;;
5199;SDS011;2619;47.868;11.892;2022-07-29T14:11:47;2.77;;;2.37;;
5199;SDS011;2619;47.868;11.892;2022-07-29T14:14:15;2.97;;;2.43;;
5199;SDS011;2619;47.868;11.892;2022-07-29T14:16:40;3.10;;;2.80;;
5199;SDS011;2619;47.868;11.892;2022-07-29T14:19:06;3.60;;;2.67;;
5199;SDS011;2619;47.868;11.892;2022-07-29T14:21:32;3.30;;;2.50;;
5199;SDS011;2619;47.868;11.892;2022-07-29T14:23:57;4.50;;;2.90;;
5199;SDS011;2619;47.868;11.892;2022-07-29T14:26:23;4.07;;;2.90;;
5199;SDS011;2619;47.868;11.892;2022-07-29T14:28:49;2.83;;;2.63;;
5199;SDS011;2619;47.868;11.892;2022-07-29T14:31:15;3.10;;;2.77;;
5199;SDS011;2619;47.868;11.892;2022-07-29T14:33:41;4.43;;;3.00;;
5199;SDS011;2619;47.868;11.892;2022-07-29T14:36:07;5.57;;;2.87;;
5199;SDS011;2619;47.868;11.892;2022-07-29T14:38:34;4.10;;;2.73;;
5199;SDS011;2619;47.868;11.892;2022-07-29T14:41:00;3.83;;;3.00;;
5199;SDS011;2619;47.868;11.892;2022-07-29T14:43:25;3.30;;;2.63;;
5199;SDS011;2619;47.868;11.892;2022-07-29T14:45:51;4.10;;;3.13;;
5199;SDS011;2619;47.868;11.892;2022-07-29T14:48:17;3.50;;;3.00;;
5199;SDS011;2619;47.868;11.892;2022-07-29T14:50:42;5.50;;;3.00;;
5199;SDS011;2619;47.868;11.892;2022-07-29T14:53:08;4.17;;;2.80;;
5199;SDS011;2619;47.868;11.892;2022-07-29T14:55:33;4.00;;;2.67;;
5199;SDS011;2619;47.868;11.892;2022-07-29T14:58:00;5.37;;;3.23;;
5199;SDS011;2619;47.868;11.892;2022-07-29T15:00:26;2.60;;;2.30;;
5199;SDS011;2619;47.868;11.892;2022-07-29T15:02:51;3.03;;;2.70;;
5199;SDS011;2619;47.868;11.892;2022-07-29T15:05:17;3.30;;;2.67;;
5199;SDS011;2619;47.868;11.892;2022-07-29T15:07:43;4.77;;;2.87;;
5199;SDS011;2619;47.868;11.892;2022-07-29T15:10:08;4.37;;;3.00;;
5199;SDS011;2619;47.868;11.892;2022-07-29T15:12:34;4.57;;;2.60;;
5199;SDS011;2619;47.868;11.892;2022-07-29T15:14:59;4.30;;;3.00;;
5199;SDS011;2619;47.868;11.892;2022-07-29T15:17:25;4.70;;;2.80;;
5199;SDS011;2619;47.868;11.892;2022-07-29T15:19:51;3.50;;;2.70;;
5199;SDS011;2619;47.868;11.892;2022-07-29T15:22:17;4.80;;;3.03;;
5199;SDS011;2619;47.868;11.892;2022-07-29T15:24:42;3.83;;;2.70;;
5199;SDS011;2619;47.868;11.892;2022-07-29T15:27:09;9.20;;;3.17;;
5199;SDS011;2619;47.868;11.892;2022-07-29T15:29:39;4.00;;;2.40;;
5199;SDS011;2619;47.868;11.892;2022-07-29T15:32:06;4.20;;;2.77;;
5199;SDS011;2619;47.868;11.892;2022-07-29T15:34:31;3.37;;;2.77;;
5199;SDS011;2619;47.868;11.892;2022-07-29T15:36:57;3.50;;;2.73;;
5199;SDS011;2619;47.868;11.892;2022-07-29T15:39:23;4.40;;;3.40;;
5199;SDS011;2619;47.868;11.892;2022-07-29T15:41:48;6.13;;;2.97;;
5199;SDS011;2619;47.868;11.892;2022-07-29T15:44:14;4.57;;;3.33;;
5199;SDS011;2619;47.868;11.892;2022-07-29T15:46:40;7.70;;;3.20;;
5199;SDS011;2619;47.868;11.892;2022-07-29T15:49:24;6.00;;;3.17;;
5199;SDS011;2619;47.868;11.892;2022-07-29T15:51:55;5.20;;;3.50;;
5199;SDS011;2619;47.868;11.892;2022-07-29T15:54:25;4.30;;;3.27;;
5199;SDS011;2619;47.868;11.892;2022-07-29T15:56:52;4.43;;;2.93;;
5199;SDS011;2619;47.868;11.892;2022-07-29T15:59:18;3.87;;;3.50;;
5199;SDS011;2619;47.868;11.892;2022-07-29T16:01:44;5.47;;;3.20;;
5199;SDS011;2619;47.868;11.892;2022-07-29T16:04:10;4.60;;;3.30;;
5199;SDS011;2619;47.868;11.892;2022-07-29T16:06:35;5.60;;;4.30;;